NCAR-RAP Real-Time Weather Data

Output produced by METARs form (14 October 2019  23:10 UTC)
found at http://weather.rap.ucar.edu/surface/
 
KBOS 142254Z 10004KT 10SM FEW002 FEW033 15/13 A2992 RMK AO2 SLP130 VIS NW-NE 1 1/2 T01500128
KBOS 142225Z 11008KT 10SM BCFG SCT002 SCT027 15/13 A2991 RMK AO2 VIS NW-NE 1/2 T01500128
KBOS 142154Z 11011KT 10SM FEW006 FEW025 15/13 A2990 RMK AO2 SLP125 T01500128
KBOS 142054Z 11011KT 10SM FEW012 FEW025 16/13 A2989 RMK AO2 SLP121 T01610128 56014